Aeroporto :
LOGIN :

Iscrizione | Disclaimer

   EN    FR    IT 

 










Sommario :    VFR   VFR Marginale   IFR   IFR Intensivo   IFR Molto Intensivo
Visibilità : 
Base nubi : 
>= 8 km
>= 3000ft
5 / 8 km
1000 / 3000 ft
1500m / 5 km
500 / 1000 ft
800 / 1500m
200 / 500 ft
< 800m
< 200 ft
Simboli :   Temporali  Nebbia  Neve Forte  Precipitazioni Forti  Vento > 20 kt
SIGMETs :   Varie  Temporali  Ghiacco  Turbolenza  Onda orograficha  Ceneri Vulcaniche






- Altitudine del aeroporto : 359 ft
- Codice IATA : DEB


LHDC - Debrecen

ULTIMO METAR :
  • 281215Z AUTO VRB04KT 9000 NCD 18/02 Q1013

METARs OBSOLETI :
  • 281145Z AUTO 12006KT 060V180 8000 NCD 18/01 Q1013
  • 281115Z AUTO VRB06KT 9000 NCD 17/02 Q1014
  • 281045Z AUTO VRB05KT 8000 NCD 17/01 Q1014
  • 281015Z AUTO 11006KT 050V170 8000 NCD 17/02 Q1014
  • 280945Z AUTO 11007KT 050V190 8000 NCD 16/00 Q1015

Previsioni scadute.



MetMap, La meteo Aeronautica in un colpo d'occhio ! - Copyright ORBIFLY Dicembre 2007 - Disclaimer

ORBIFLY MET'MAP TEAM :

Programmazione e sviluppo : Alexandra Zaïnal
Concezione : Baudouin d'Aumeries
Aiuto per la programmazione : Marc-Olivier Méhu
Supporto tecnico e logistico : Manuel Goepfert
Aiuto per la traduzione : Arnaldo La Scala

Contatto : metmap@orbifly.com




FONTI E CREDITI :

   NOAA